createdAt,value
2023-04-25T00:02:11.435Z,22.72
2023-04-25T00:04:39.258Z,22.77
2023-04-25T00:07:06.442Z,22.90
2023-04-25T00:09:33.219Z,22.82
2023-04-25T00:11:59.995Z,22.89
2023-04-25T00:14:26.764Z,23.07
2023-04-25T00:16:54.697Z,21.61
2023-04-25T00:19:21.484Z,18.53
2023-04-25T00:21:48.256Z,17.68
2023-04-25T00:24:15.341Z,19.97
2023-04-25T00:26:42.160Z,20.81
2023-04-25T00:29:09.055Z,21.35
2023-04-25T00:31:35.869Z,21.55
2023-04-25T00:34:02.684Z,21.74
2023-04-25T00:36:29.486Z,21.75
2023-04-25T00:38:56.728Z,21.97
2023-04-25T00:41:23.547Z,22.02
2023-04-25T00:43:50.777Z,22.12
2023-04-25T00:46:17.802Z,22.32
2023-04-25T00:48:44.561Z,22.37
2023-04-25T00:51:11.307Z,22.46
2023-04-25T00:53:38.085Z,22.41
2023-04-25T00:56:05.014Z,22.55
2023-04-25T00:58:31.859Z,22.59
2023-04-25T01:00:58.767Z,22.68
2023-04-25T01:03:25.844Z,22.60
2023-04-25T01:05:52.780Z,22.75
2023-04-25T01:08:19.517Z,22.80
2023-04-25T01:10:46.278Z,22.82
2023-04-25T01:13:13.046Z,22.85
2023-04-25T01:15:39.799Z,22.85
2023-04-25T01:18:06.852Z,22.93
2023-04-25T01:20:33.757Z,21.28
2023-04-25T01:23:00.537Z,18.74
2023-04-25T01:25:27.304Z,18.05
2023-04-25T01:27:54.130Z,20.13
2023-04-25T01:30:20.915Z,20.95
2023-04-25T01:32:47.769Z,21.33
2023-04-25T01:35:14.783Z,21.71
2023-04-25T01:37:41.560Z,21.73
2023-04-25T01:40:08.343Z,21.87
2023-04-25T01:42:35.170Z,22.06
2023-04-25T01:45:02.106Z,22.12
2023-04-25T01:47:30.734Z,22.18
2023-04-25T01:49:59.277Z,22.32
2023-04-25T01:52:26.017Z,22.41
2023-04-25T01:54:52.760Z,22.41
2023-04-25T01:57:19.542Z,22.45
2023-04-25T01:59:46.287Z,22.48
2023-04-25T02:02:13.070Z,22.60
2023-04-25T02:04:39.964Z,22.75
2023-04-25T02:07:06.866Z,22.63
2023-04-25T02:09:33.646Z,22.73
2023-04-25T02:12:00.669Z,22.72
2023-04-25T02:14:27.717Z,22.82
2023-04-25T02:16:55.018Z,22.82
2023-04-25T02:19:21.803Z,22.81
2023-04-25T02:21:48.539Z,22.97
2023-04-25T02:24:15.543Z,22.96
2023-04-25T02:26:42.347Z,19.91
2023-04-25T02:29:09.077Z,17.98
2023-04-25T02:31:35.862Z,19.00
2023-04-25T02:34:02.673Z,20.49
2023-04-25T02:36:33.038Z,21.11
2023-04-25T02:38:59.955Z,21.35
2023-04-25T02:41:26.714Z,21.58
2023-04-25T02:43:53.568Z,21.78
2023-04-25T02:46:32.192Z,21.94
2023-04-25T02:49:04.886Z,22.08
2023-04-25T02:51:32.160Z,22.19
2023-04-25T02:53:58.946Z,22.28
2023-04-25T02:56:27.049Z,22.42
2023-04-25T02:58:53.927Z,22.41
2023-04-25T03:01:21.049Z,22.39
2023-04-25T03:03:48.002Z,22.60
2023-04-25T03:06:14.835Z,22.61
2023-04-25T03:08:41.599Z,22.59
2023-04-25T03:11:08.385Z,22.71
2023-04-25T03:13:35.280Z,22.75
2023-04-25T03:16:02.221Z,22.74
2023-04-25T03:18:29.119Z,22.79
2023-04-25T03:20:55.881Z,22.91
2023-04-25T03:23:22.645Z,22.94
2023-04-25T03:25:49.406Z,22.98
2023-04-25T03:28:16.158Z,22.55
2023-04-25T03:30:42.911Z,19.20
2023-04-25T03:33:09.687Z,17.83
2023-04-25T03:35:36.473Z,19.58
2023-04-25T03:38:03.219Z,20.64
2023-04-25T03:40:30.128Z,21.15
2023-04-25T03:42:56.894Z,21.68
2023-04-25T03:45:23.893Z,21.86
2023-04-25T03:47:50.961Z,21.82
2023-04-25T03:50:17.842Z,21.95
2023-04-25T03:52:44.608Z,22.11
2023-04-25T03:55:11.397Z,22.15
2023-04-25T03:57:38.160Z,22.24
2023-04-25T04:00:05.209Z,22.24
2023-04-25T04:02:32.121Z,22.49
2023-04-25T04:04:59.337Z,22.49
2023-04-25T04:07:26.239Z,22.57
2023-04-25T04:09:52.991Z,22.59
2023-04-25T04:12:19.754Z,22.64
2023-04-25T04:14:46.509Z,22.70
2023-04-25T04:17:13.289Z,22.65
2023-04-25T04:19:40.103Z,22.77
2023-04-25T04:22:06.861Z,22.67
2023-04-25T04:24:33.644Z,22.79
2023-04-25T04:27:00.406Z,22.89
2023-04-25T04:29:27.135Z,22.59
2023-04-25T04:31:54.115Z,19.10
2023-04-25T04:34:20.965Z,17.82
2023-04-25T04:36:47.753Z,19.56
2023-04-25T04:39:14.570Z,20.71
2023-04-25T04:41:41.534Z,21.19
2023-04-25T04:44:09.826Z,21.52
2023-04-25T04:46:42.956Z,21.77
2023-04-25T04:49:09.905Z,21.88
2023-04-25T04:51:37.500Z,21.97
2023-04-25T04:54:04.279Z,22.04
2023-04-25T04:56:31.861Z,22.15
2023-04-25T04:58:58.661Z,22.17
2023-04-25T05:01:25.451Z,22.36
2023-04-25T05:03:52.748Z,22.46
2023-04-25T05:06:19.973Z,22.45
2023-04-25T05:08:46.776Z,22.50
2023-04-25T05:11:13.538Z,22.48
2023-04-25T05:13:40.409Z,22.54
2023-04-25T05:16:07.238Z,22.58
2023-04-25T05:18:34.017Z,22.68
2023-04-25T05:21:00.797Z,22.73
2023-04-25T05:23:28.807Z,22.78
2023-04-25T05:25:55.670Z,22.87
2023-04-25T05:28:22.427Z,22.87
2023-04-25T05:30:49.205Z,22.89
2023-04-25T05:33:16.288Z,22.98
2023-04-25T05:35:43.050Z,22.33
2023-04-25T05:38:09.867Z,19.18
2023-04-25T05:40:36.680Z,17.92
2023-04-25T05:43:03.486Z,19.76
2023-04-25T05:45:30.426Z,20.87
2023-04-25T05:47:57.289Z,21.37
2023-04-25T05:50:24.101Z,21.75
2023-04-25T05:52:50.900Z,21.73
2023-04-25T05:55:17.682Z,21.87
2023-04-25T05:57:46.080Z,21.93
2023-04-25T06:00:12.975Z,22.11
2023-04-25T06:02:39.910Z,22.13
2023-04-25T06:05:06.880Z,22.20
2023-04-25T06:07:33.908Z,22.31
2023-04-25T06:10:01.667Z,22.41
2023-04-25T06:12:28.416Z,22.51
2023-04-25T06:14:55.257Z,22.48
2023-04-25T06:17:22.171Z,22.52
2023-04-25T06:19:48.916Z,22.77
2023-04-25T06:22:15.680Z,22.65
2023-04-25T06:24:42.485Z,22.75
2023-04-25T06:27:09.243Z,22.79
2023-04-25T06:29:36.033Z,22.86
2023-04-25T06:32:02.794Z,22.96
2023-04-25T06:34:29.691Z,22.88
2023-04-25T06:36:56.472Z,23.02
2023-04-25T06:39:24.281Z,22.68
2023-04-25T06:41:51.111Z,20.40
2023-04-25T06:44:17.935Z,19.45
2023-04-25T06:46:45.195Z,20.13
2023-04-25T06:49:12.010Z,20.50
2023-04-25T06:51:38.890Z,21.08
2023-04-25T06:54:06.321Z,21.56
2023-04-25T06:56:33.087Z,21.74
2023-04-25T06:59:01.616Z,21.90
2023-04-25T07:01:28.466Z,22.02
2023-04-25T07:03:55.341Z,22.19
2023-04-25T07:06:22.197Z,22.25
2023-04-25T07:08:49.434Z,22.38
2023-04-25T07:11:16.495Z,22.52
2023-04-25T07:13:43.333Z,22.48
2023-04-25T07:16:10.310Z,22.63
2023-04-25T07:18:37.091Z,22.55
2023-04-25T07:21:03.843Z,22.63
2023-04-25T07:23:31.028Z,22.80
2023-04-25T07:25:57.786Z,22.75
2023-04-25T07:28:24.589Z,22.86
2023-04-25T07:30:51.602Z,22.76
2023-04-25T07:33:18.391Z,22.85
2023-04-25T07:35:45.171Z,22.27
2023-04-25T07:38:12.131Z,19.06
2023-04-25T07:40:38.889Z,17.60
2023-04-25T07:43:05.714Z,19.67
2023-04-25T07:45:32.554Z,20.60
2023-04-25T07:47:59.457Z,21.23
2023-04-25T07:50:26.289Z,21.47
2023-04-25T07:52:53.074Z,21.72
2023-04-25T07:55:20.014Z,21.89
2023-04-25T07:57:46.804Z,21.98
2023-04-25T08:00:13.620Z,21.97
2023-04-25T08:02:40.594Z,22.10
2023-04-25T08:05:09.356Z,22.23
2023-04-25T08:07:36.238Z,22.33
2023-04-25T08:10:03.625Z,22.43
2023-04-25T08:12:30.512Z,22.46
2023-04-25T08:14:57.318Z,22.56
2023-04-25T08:17:24.517Z,22.61
2023-04-25T08:19:51.400Z,22.63
2023-04-25T08:22:18.186Z,22.71
2023-04-25T08:24:45.009Z,22.71
2023-04-25T08:27:12.151Z,22.74
2023-04-25T08:29:38.936Z,22.80
2023-04-25T08:32:05.801Z,22.88
2023-04-25T08:34:32.578Z,22.95
2023-04-25T08:36:59.326Z,22.32
2023-04-25T08:39:26.721Z,20.39
2023-04-25T08:41:53.523Z,19.24
2023-04-25T08:44:20.497Z,20.27
2023-04-25T08:49:14.207Z,21.17
2023-04-25T08:51:40.948Z,21.63
2023-04-25T08:54:12.942Z,21.70
2023-04-25T08:56:46.843Z,21.96
2023-04-25T08:59:13.662Z,22.05
2023-04-25T09:01:40.682Z,22.14
2023-04-25T09:04:07.740Z,22.28
2023-04-25T09:06:35.716Z,22.35
2023-04-25T09:09:02.464Z,22.41
2023-04-25T09:11:29.305Z,22.46
2023-04-25T09:13:56.061Z,22.56
2023-04-25T09:16:23.203Z,22.72
2023-04-25T09:18:50.408Z,22.82
2023-04-25T09:21:17.259Z,22.84
2023-04-25T09:23:44.058Z,22.78
2023-04-25T09:26:10.942Z,22.86
2023-04-25T09:28:38.794Z,22.81
2023-04-25T09:31:06.056Z,21.95
2023-04-25T09:33:33.037Z,19.63
2023-04-25T09:35:59.799Z,18.73
2023-04-25T09:38:26.555Z,20.16
2023-04-25T09:40:53.317Z,20.28
2023-04-25T09:43:20.449Z,21.00
2023-04-25T09:45:48.243Z,21.61
2023-04-25T09:48:15.165Z,21.73
2023-04-25T09:50:41.978Z,21.86
2023-04-25T09:53:08.996Z,22.04
2023-04-25T09:55:35.824Z,22.26
2023-04-25T09:58:02.603Z,22.24
2023-04-25T10:00:29.345Z,22.40
2023-04-25T10:02:56.228Z,22.40
2023-04-25T10:05:23.433Z,22.53
2023-04-25T10:07:50.440Z,22.60
2023-04-25T10:10:17.269Z,22.61
2023-04-25T10:12:45.125Z,22.68
2023-04-25T10:15:11.978Z,22.72
2023-04-25T10:17:38.769Z,22.92
2023-04-25T10:20:11.471Z,22.83
2023-04-25T10:22:38.289Z,22.83
2023-04-25T10:25:05.248Z,23.04
2023-04-25T10:27:32.102Z,21.38
2023-04-25T10:29:58.868Z,19.80
2023-04-25T10:32:25.828Z,19.81
2023-04-25T10:34:52.607Z,20.78
2023-04-25T10:37:19.374Z,21.14
2023-04-25T10:39:47.523Z,21.59
2023-04-25T10:42:14.379Z,21.83
2023-04-25T10:44:41.188Z,22.13
2023-04-25T10:47:08.013Z,22.23
2023-04-25T10:49:34.901Z,22.27
2023-04-25T10:52:01.634Z,22.37
2023-04-25T10:54:28.425Z,22.53
2023-04-25T10:56:55.218Z,22.53
2023-04-25T10:59:22.354Z,22.53
2023-04-25T11:01:50.183Z,22.68
2023-04-25T11:04:17.381Z,22.77
2023-04-25T11:06:44.326Z,22.74
2023-04-25T11:09:11.139Z,22.89
2023-04-25T11:11:37.894Z,22.88
2023-04-25T11:14:04.665Z,22.19
2023-04-25T11:16:32.061Z,19.73
2023-04-25T11:18:58.959Z,18.33
2023-04-25T11:21:27.004Z,20.00
2023-04-25T11:23:54.329Z,20.80
2023-04-25T11:26:21.558Z,21.57
2023-04-25T11:28:48.403Z,21.75
2023-04-25T11:31:15.425Z,21.85
2023-04-25T11:33:43.352Z,22.04
2023-04-25T11:36:10.278Z,22.18
2023-04-25T11:38:37.026Z,22.25
2023-04-25T11:41:03.765Z,22.33
2023-04-25T11:43:30.586Z,22.39
2023-04-25T11:45:57.725Z,22.50
2023-04-25T11:51:11.320Z,22.60
2023-04-25T11:51:17.456Z,22.65
2023-04-25T11:53:38.095Z,22.72
2023-04-25T11:56:04.848Z,22.78
2023-04-25T11:58:31.671Z,22.79
2023-04-25T12:01:00.322Z,22.86
2023-04-25T12:03:32.273Z,22.93
2023-04-25T12:05:59.424Z,22.56
2023-04-25T12:08:26.673Z,19.90
2023-04-25T12:10:55.721Z,18.78
2023-04-25T12:13:22.530Z,20.00
2023-04-25T12:15:49.719Z,20.64
2023-04-25T12:18:16.526Z,21.34
2023-04-25T12:20:43.893Z,21.63
2023-04-25T12:23:11.931Z,21.88
2023-04-25T12:25:39.168Z,21.93
2023-04-25T12:28:05.935Z,22.11
2023-04-25T12:30:32.818Z,22.27
2023-04-25T12:32:59.592Z,22.35
2023-04-25T12:35:26.796Z,22.45
2023-04-25T12:37:53.608Z,22.52
2023-04-25T12:40:20.611Z,22.62
2023-04-25T12:42:47.365Z,22.67
2023-04-25T12:45:14.128Z,22.69
2023-04-25T12:47:40.923Z,22.78
2023-04-25T12:50:07.750Z,22.85
2023-04-25T12:52:34.511Z,22.91
2023-04-25T12:55:01.264Z,22.99
2023-04-25T12:57:28.060Z,22.94
2023-04-25T12:59:54.805Z,21.47
2023-04-25T13:02:21.715Z,19.71
2023-04-25T13:04:48.600Z,19.65
2023-04-25T13:07:15.472Z,20.48
2023-04-25T13:09:42.240Z,21.22
2023-04-25T13:12:09.031Z,21.64
2023-04-25T13:14:35.797Z,21.81
2023-04-25T13:17:02.853Z,22.01
2023-04-25T13:19:29.800Z,22.20
2023-04-25T13:21:56.565Z,22.18
2023-04-25T13:24:23.397Z,22.41
2023-04-25T13:26:50.243Z,22.30
2023-04-25T13:29:17.203Z,22.50
2023-04-25T13:31:44.091Z,22.78
2023-04-25T13:34:13.326Z,22.84
2023-04-25T13:36:40.079Z,22.75
2023-04-25T13:39:07.378Z,22.87
2023-04-25T13:41:34.196Z,23.00
2023-04-25T13:44:02.009Z,21.71
2023-04-25T13:46:44.629Z,19.16
2023-04-25T13:49:13.578Z,18.63
2023-04-25T13:51:40.621Z,20.32
2023-04-25T13:54:07.503Z,21.08
2023-04-25T13:56:34.308Z,21.59
2023-04-25T13:59:01.107Z,21.80
2023-04-25T14:01:28.906Z,22.02
2023-04-25T14:03:56.057Z,22.18
2023-04-25T14:06:24.819Z,22.17
2023-04-25T14:08:51.660Z,22.31
2023-04-25T14:11:19.223Z,22.37
2023-04-25T14:13:46.025Z,22.45
2023-04-25T14:16:12.962Z,22.56
2023-04-25T14:18:39.819Z,22.60
2023-04-25T14:21:06.671Z,22.82
2023-04-25T14:23:33.454Z,22.83
2023-04-25T14:26:00.272Z,22.85
2023-04-25T14:28:27.021Z,22.87
2023-04-25T14:30:53.823Z,22.84
2023-04-25T14:33:20.667Z,22.91
2023-04-25T14:35:47.456Z,19.93
2023-04-25T14:38:15.288Z,18.41
2023-04-25T14:40:42.085Z,19.49
2023-04-25T14:43:08.856Z,20.83
2023-04-25T14:45:35.750Z,21.39
2023-04-25T14:48:02.847Z,21.66
2023-04-25T14:50:29.652Z,21.94
2023-04-25T14:52:59.630Z,22.07
2023-04-25T14:55:26.445Z,22.14
2023-04-25T14:57:53.197Z,22.32
2023-04-25T15:00:21.498Z,22.30
2023-04-25T15:02:48.708Z,22.38
2023-04-25T15:05:16.082Z,22.63
2023-04-25T15:07:42.901Z,22.56
2023-04-25T15:10:14.379Z,22.57
2023-04-25T15:12:41.305Z,22.71
2023-04-25T15:17:39.805Z,22.84
2023-04-25T15:20:06.581Z,22.91
2023-04-25T15:22:33.330Z,22.93
2023-04-25T15:25:00.160Z,21.20
2023-04-25T15:27:28.118Z,19.38
2023-04-25T15:29:54.896Z,18.99
2023-04-25T15:32:22.000Z,20.33
2023-04-25T15:34:49.014Z,20.74
2023-04-25T15:37:15.854Z,21.57
2023-04-25T15:39:42.720Z,21.85
2023-04-25T15:42:09.495Z,22.06
2023-04-25T15:44:36.273Z,21.95
2023-04-25T15:47:03.038Z,22.12
2023-04-25T15:49:31.014Z,22.23
2023-04-25T15:51:57.794Z,22.24
2023-04-25T15:54:24.677Z,22.51
2023-04-25T15:56:51.421Z,22.53
2023-04-25T15:59:18.184Z,22.56
2023-04-25T16:01:45.042Z,22.62
2023-04-25T16:04:12.003Z,22.74
2023-04-25T16:06:39.521Z,22.89
2023-04-25T16:09:06.650Z,22.80
2023-04-25T16:11:33.405Z,22.83
2023-04-25T16:14:00.161Z,22.87
2023-04-25T16:16:27.161Z,22.84
2023-04-25T16:18:53.933Z,19.94
2023-04-25T16:21:21.119Z,18.61
2023-04-25T16:23:47.964Z,19.55
2023-04-25T16:26:14.836Z,20.59
2023-04-25T16:28:41.689Z,21.32
2023-04-25T16:31:08.477Z,21.55
2023-04-25T16:33:35.435Z,21.84
2023-04-25T16:36:02.300Z,22.10
2023-04-25T16:38:29.097Z,22.10
2023-04-25T16:40:55.956Z,22.26
2023-04-25T16:43:22.807Z,22.44
2023-04-25T16:45:49.588Z,22.44
2023-04-25T16:48:19.132Z,22.35
2023-04-25T16:50:45.900Z,22.52
2023-04-25T16:53:12.681Z,22.59
2023-04-25T16:55:39.476Z,22.62
2023-04-25T16:58:08.649Z,22.79
2023-04-25T17:00:36.233Z,22.92
2023-04-25T17:03:03.168Z,22.90
2023-04-25T17:05:30.048Z,22.87
2023-04-25T17:07:56.848Z,22.94
2023-04-25T17:10:23.634Z,20.31
2023-04-25T17:12:51.000Z,18.86
2023-04-25T17:15:17.889Z,19.50
2023-04-25T17:17:44.821Z,20.46
2023-04-25T17:20:12.244Z,21.51
2023-04-25T17:22:39.037Z,21.66
2023-04-25T17:25:05.820Z,21.85
2023-04-25T17:27:32.801Z,21.94
2023-04-25T17:29:59.650Z,22.12
2023-04-25T17:32:26.737Z,22.24
2023-04-25T17:34:53.723Z,22.30
2023-04-25T17:37:21.062Z,22.40
2023-04-25T17:39:47.927Z,22.56
2023-04-25T17:42:15.036Z,22.51
2023-04-25T17:44:41.837Z,22.60
2023-04-25T17:47:09.961Z,22.74
2023-04-25T17:49:36.750Z,22.74
2023-04-25T17:52:03.587Z,22.74
2023-04-25T17:54:30.833Z,22.80
2023-04-25T17:56:57.588Z,22.95
2023-04-25T17:59:24.406Z,22.35
2023-04-25T18:01:51.240Z,19.07
2023-04-25T18:04:18.850Z,17.72
2023-04-25T18:06:45.877Z,19.61
2023-04-25T18:09:16.091Z,21.04
2023-04-25T18:11:42.982Z,21.45
2023-04-25T18:14:14.339Z,21.79
2023-04-25T18:16:41.820Z,21.80
2023-04-25T18:19:11.660Z,21.85
2023-04-25T18:21:38.471Z,22.05
2023-04-25T18:24:05.266Z,22.15
2023-04-25T18:26:32.023Z,22.26
2023-04-25T18:28:58.827Z,22.35
2023-04-25T18:31:26.390Z,22.28
2023-04-25T18:33:53.377Z,22.41
2023-04-25T18:36:20.296Z,22.47
2023-04-25T18:38:50.279Z,22.62
2023-04-25T18:43:47.742Z,22.87
2023-04-25T18:46:14.558Z,22.71
2023-04-25T18:48:41.524Z,22.81
2023-04-25T18:51:08.839Z,22.85
2023-04-25T18:53:35.813Z,22.94
2023-04-25T18:56:02.598Z,22.48
2023-04-25T18:58:29.391Z,19.61
2023-04-25T19:00:56.385Z,17.95
2023-04-25T19:03:23.433Z,19.62
2023-04-25T19:05:50.606Z,20.68
2023-04-25T19:08:17.775Z,21.51
2023-04-25T19:10:44.521Z,21.55
2023-04-25T19:13:11.313Z,21.88
2023-04-25T19:15:39.328Z,22.01
2023-04-25T19:18:06.121Z,22.01
2023-04-25T19:20:32.929Z,22.13
2023-04-25T19:22:59.679Z,22.20
2023-04-25T19:25:27.000Z,22.27
2023-04-25T19:27:53.869Z,22.38
2023-04-25T19:30:20.705Z,22.46
2023-04-25T19:32:47.551Z,22.49
2023-04-25T19:35:14.369Z,22.57
2023-04-25T19:37:46.204Z,22.63
2023-04-25T19:40:13.307Z,22.64
2023-04-25T19:42:40.070Z,22.74
2023-04-25T19:45:07.517Z,22.76
2023-04-25T19:47:34.388Z,22.79
2023-04-25T19:50:01.360Z,22.89
2023-04-25T19:52:28.178Z,22.89
2023-04-25T19:54:58.072Z,20.81
2023-04-25T19:57:27.166Z,19.46
2023-04-25T19:59:53.920Z,19.95
2023-04-25T20:02:21.178Z,20.66
2023-04-25T20:04:48.155Z,21.48
2023-04-25T20:07:15.469Z,21.62
2023-04-25T20:09:42.367Z,21.81
2023-04-25T20:12:09.254Z,22.01
2023-04-25T20:14:36.498Z,21.99
2023-04-25T20:17:04.362Z,22.27
2023-04-25T20:19:32.528Z,22.28
2023-04-25T20:21:59.276Z,22.40
2023-04-25T20:24:26.066Z,22.36
2023-04-25T20:26:52.861Z,22.51
2023-04-25T20:29:19.626Z,22.62
2023-04-25T20:31:46.412Z,22.58
2023-04-25T20:34:13.466Z,22.66
2023-04-25T20:36:40.224Z,22.73
2023-04-25T20:39:07.756Z,22.77
2023-04-25T20:41:34.511Z,22.95
2023-04-25T20:44:02.841Z,22.84
2023-04-25T20:46:30.005Z,22.87
2023-04-25T20:48:56.941Z,20.39
2023-04-25T20:51:23.785Z,18.33
2023-04-25T20:53:50.634Z,19.07
2023-04-25T20:56:17.455Z,20.66
2023-04-25T20:58:44.203Z,21.20
2023-04-25T21:01:11.306Z,21.57
2023-04-25T21:03:38.442Z,21.69
2023-04-25T21:06:05.687Z,21.86
2023-04-25T21:08:32.453Z,22.01
2023-04-25T21:10:59.400Z,22.14
2023-04-25T21:13:28.722Z,22.17
2023-04-25T21:15:55.740Z,22.31
2023-04-25T21:18:22.587Z,22.31
2023-04-25T21:20:49.334Z,22.46
2023-04-25T21:23:16.920Z,22.49
2023-04-25T21:25:43.811Z,22.53
2023-04-25T21:28:10.815Z,22.75
2023-04-25T21:30:37.568Z,22.65
2023-04-25T21:33:04.422Z,22.70
2023-04-25T21:35:31.372Z,22.76
2023-04-25T21:37:58.269Z,22.81
2023-04-25T21:40:25.067Z,22.07
2023-04-25T21:42:53.453Z,19.33
2023-04-25T21:45:20.500Z,17.88
2023-04-25T21:47:47.617Z,19.95
2023-04-25T21:50:14.486Z,20.86
2023-04-25T21:52:41.400Z,21.33
2023-04-25T21:55:08.161Z,21.70
2023-04-25T21:57:34.942Z,21.84
2023-04-25T22:00:02.006Z,21.99
2023-04-25T22:02:30.946Z,22.07
2023-04-25T22:04:57.932Z,22.11
2023-04-25T22:07:24.814Z,22.19
2023-04-25T22:09:55.541Z,22.24
2023-04-25T22:12:23.393Z,22.38
2023-04-25T22:14:50.500Z,22.44
2023-04-25T22:17:17.901Z,22.46
2023-04-25T22:19:44.789Z,22.61
2023-04-25T22:22:11.685Z,22.60
2023-04-25T22:24:38.727Z,22.67
2023-04-25T22:27:05.682Z,22.71
2023-04-25T22:29:32.766Z,22.72
2023-04-25T22:31:59.800Z,22.84
2023-04-25T22:34:26.754Z,22.86
2023-04-25T22:36:54.656Z,22.79
2023-04-25T22:39:21.430Z,22.98
2023-04-25T22:41:48.839Z,22.88
2023-04-25T22:44:16.064Z,21.24
2023-04-25T22:46:43.127Z,18.73
2023-04-25T22:49:09.933Z,18.96
2023-04-25T22:51:36.981Z,20.27
2023-04-25T22:54:03.866Z,21.24
2023-04-25T22:56:30.694Z,21.55
2023-04-25T22:58:57.438Z,21.75
2023-04-25T23:01:24.949Z,21.87
2023-04-25T23:03:51.871Z,22.09
2023-04-25T23:06:18.778Z,22.14
2023-04-25T23:08:45.596Z,22.10
2023-04-25T23:11:12.359Z,22.25
2023-04-25T23:13:39.343Z,22.31
2023-04-25T23:16:06.351Z,22.33
2023-04-25T23:18:33.459Z,22.44
2023-04-25T23:21:01.857Z,22.48
2023-04-25T23:23:28.691Z,22.53
2023-04-25T23:25:56.672Z,22.54
2023-04-25T23:28:23.449Z,22.60
2023-04-25T23:30:50.343Z,22.76
2023-04-25T23:33:17.130Z,22.73
2023-04-25T23:35:43.882Z,22.87
2023-04-25T23:38:10.685Z,22.79
2023-04-25T23:40:37.422Z,22.87
2023-04-25T23:43:04.198Z,22.85
2023-04-25T23:45:30.977Z,20.70
2023-04-25T23:47:57.819Z,18.85
2023-04-25T23:50:24.682Z,19.82
2023-04-25T23:52:51.455Z,20.63
2023-04-25T23:55:18.198Z,21.26
2023-04-25T23:57:45.008Z,21.66
